Forest City, IA

9:25 PM CDT on May 26, 2017 (GMT -0500)
Forest City Municipal

Weather History for KFXY - January, 2013

Change the Weather History Date:

Monday, January 21, 2013

  Actual Average Record
Temperature  
Mean Temperature -1 °F -  
Max Temperature 5 °F 26 °F 39 °F (2017)
Min Temperature -7 °F 9 °F -16 °F (2012)
Degree Days  
Heating Degree Days 66    
Moisture  
Dew Point -11 °F    
Average Humidity 63    
Maximum Humidity 78    
Minimum Humidity 55    
Precipitation  
Precipitation 0.00 in - - ()
Sea Level Pressure  
Sea Level Pressure 30.28 in    
Wind  
Wind Speed 15 mph (WNW)    
Max Wind Speed 21 mph    
Max Gust Speed 30 mph    
Visibility 10 miles    
Events      
Averages and records for this station are not official NWS values.
T = Trace of Precipitation, MM = Missing Value Source: NWS Daily Summary

Daily Weather History Graph

Daily Weather History Graph

Search for Another Location

Airport or City:

Trip Planner

Search our weather history database for the weather conditions in past years. The results will help you decide how hot, cold, wet, or windy it might be!

Date:

Astronomy

Jan. 21, 2013 Rise Set
Actual Time 7:39 AM CST 5:12 PM CST
Civil Twilight 7:08 AM CST 5:43 PM CST
Nautical Twilight 6:33 AM CST 6:18 PM CST
Astronomical Twilight 6:00 AM CST 6:52 PM CST
Moon 12:52 PM CST (1/21) 3:08 AM CST (1/21)
Length of Visible Light 10h 34m
Length of Day
9h 32m
Waxing Gibbous, 75% of the Moon is Illuminated
Jan 21
Waxing Gibbous
Jan 26
Full
Feb 3
Last Quarter
Feb 10
New
Feb 17
First Quarter

Hourly Weather History & Observations

Time (CST) Temp. Windchill Dew Point Humidity Pressure Visibility Wind Dir Wind Speed Gust Speed Precip Events Conditions
12:15 AM 3.2 °F -17.6 °F -5.8 °F 66% 30.26 in 10.0 mi NW 19.6 mph 25.3 mph N/A   Clear
12:35 AM 3.2 °F -16.5 °F -5.8 °F 66% 30.26 in 10.0 mi NW 17.3 mph 24.2 mph N/A   Clear
12:55 AM 1.4 °F -18.2 °F -7.6 °F 66% 30.26 in 10.0 mi NW 16.1 mph 26.5 mph N/A   Scattered Clouds
1:15 AM 1.4 °F -19.4 °F -9.4 °F 61% 30.27 in 10.0 mi NW 18.4 mph 26.5 mph N/A   Mostly Cloudy
1:35 AM -0.4 °F -20.5 °F -9.4 °F 66% 30.27 in 10.0 mi NW 16.1 mph 27.6 mph N/A   Scattered Clouds
1:55 AM -0.4 °F -19.2 °F -9.4 °F 66% 30.28 in 10.0 mi NW 13.8 mph - N/A   Scattered Clouds
2:15 AM -0.4 °F -17.6 °F -9.4 °F 66% 30.28 in 10.0 mi NNW 11.5 mph - N/A   Scattered Clouds
2:35 AM -0.4 °F -17.6 °F -9.4 °F 66% 30.28 in 10.0 mi NW 11.5 mph - N/A   Clear
2:55 AM -0.4 °F -18.4 °F -9.4 °F 66% 30.28 in 10.0 mi NW 12.7 mph - N/A   Scattered Clouds
3:15 AM -0.4 °F -18.4 °F -7.6 °F 72% 30.28 in 3.0 mi NW 12.7 mph - N/A   Haze
3:35 AM -0.4 °F -21.2 °F -9.4 °F 66% 30.28 in 5.0 mi WNW 17.3 mph 25.3 mph N/A   Haze
3:55 AM -4.0 °F -26.4 °F -11.2 °F 71% 30.28 in 10.0 mi NW 18.4 mph 27.6 mph N/A   Scattered Clouds
4:15 AM -4.0 °F -27.0 °F -13.0 °F 65% 30.28 in 10.0 mi NW 19.6 mph 29.9 mph N/A   Clear
4:35 AM -5.8 °F -29.9 °F -14.8 °F 65% 30.29 in 7.0 mi NW 20.7 mph 29.9 mph N/A   Mostly Cloudy
4:55 AM -5.8 °F -29.4 °F -16.6 °F 60% 30.29 in 10.0 mi WNW 19.6 mph 26.5 mph N/A   Scattered Clouds
5:15 AM -5.8 °F -27.5 °F -14.8 °F 65% 30.29 in 10.0 mi NW 16.1 mph 25.3 mph N/A   Scattered Clouds
5:35 AM -7.6 °F -31.7 °F -16.6 °F 65% 30.30 in 10.0 mi NW 19.6 mph 26.5 mph N/A   Scattered Clouds
5:55 AM -7.6 °F -31.1 °F -18.4 °F 59% 30.30 in 10.0 mi NW 18.4 mph - N/A   Clear
6:15 AM -7.6 °F -31.1 °F -18.4 °F 59% 30.30 in 10.0 mi NW 18.4 mph 23.0 mph N/A   Clear
6:35 AM -7.6 °F -28.3 °F -18.4 °F 59% 30.30 in 10.0 mi NW 13.8 mph 18.4 mph N/A   Clear
6:55 AM -7.6 °F -29.1 °F -18.4 °F 59% 30.30 in 10.0 mi NW 15.0 mph 19.6 mph N/A   Clear
7:15 AM -7.6 °F -28.3 °F -18.4 °F 59% 30.30 in 10.0 mi NW 13.8 mph - N/A   Clear
7:35 AM -7.6 °F -28.3 °F -18.4 °F 59% 30.30 in 10.0 mi NW 13.8 mph 18.4 mph N/A   Clear
7:55 AM -7.6 °F -28.3 °F -16.6 °F 65% 30.30 in 10.0 mi NW 13.8 mph 18.4 mph N/A   Clear
8:35 AM -7.6 °F -29.1 °F -16.6 °F 65% 30.31 in 10.0 mi NW 15.0 mph 23.0 mph N/A   Clear
8:55 AM -7.6 °F -30.5 °F -16.6 °F 65% 30.31 in 10.0 mi NW 17.3 mph 23.0 mph N/A   Clear
9:15 AM -5.8 °F -28.2 °F -16.6 °F 60% 30.31 in 10.0 mi WNW 17.3 mph 21.9 mph N/A   Clear
9:35 AM -5.8 °F -28.8 °F -16.6 °F 60% 30.32 in 10.0 mi WNW 18.4 mph 23.0 mph N/A   Clear
9:55 AM -4.0 °F -25.8 °F -14.8 °F 60% 30.33 in 10.0 mi WNW 17.3 mph 21.9 mph N/A   Clear
10:15 AM -4.0 °F -26.4 °F -14.8 °F 60% 30.33 in 10.0 mi WNW 18.4 mph - N/A   Clear
10:35 AM -2.2 °F -24.1 °F -13.0 °F 60% 30.33 in 10.0 mi NW 18.4 mph 21.9 mph N/A   Clear
10:55 AM -0.4 °F -19.9 °F -13.0 °F 55% 30.34 in 10.0 mi WNW 15.0 mph 20.7 mph N/A   Clear
11:15 AM -0.4 °F -19.9 °F -13.0 °F 55% 30.33 in 10.0 mi NW 15.0 mph 25.3 mph N/A   Clear
11:35 AM -0.4 °F -20.5 °F -11.2 °F 60% 30.31 in 10.0 mi WNW 16.1 mph 20.7 mph N/A   Clear
11:55 AM 1.4 °F -18.8 °F -9.4 °F 61% 30.30 in 10.0 mi WNW 17.3 mph 21.9 mph N/A   Clear
12:15 PM 1.4 °F -18.2 °F -9.4 °F 61% 30.29 in 10.0 mi WNW 16.1 mph 21.9 mph N/A   Clear
12:35 PM 1.4 °F -19.4 °F -9.4 °F 61% 30.29 in 10.0 mi WNW 18.4 mph 21.9 mph N/A   Scattered Clouds
12:55 PM 1.4 °F -19.4 °F -9.4 °F 61% 30.28 in 10.0 mi WNW 18.4 mph - N/A   Mostly Cloudy
1:15 PM 3.2 °F -17.1 °F -7.6 °F 61% 30.27 in 7.0 mi WNW 18.4 mph 23.0 mph N/A   Overcast
1:35 PM 3.2 °F -16.5 °F -7.6 °F 61% 30.26 in 10.0 mi WNW 17.3 mph 23.0 mph N/A   Mostly Cloudy
2:15 PM 5.0 °F -13.0 °F -7.6 °F 56% 30.25 in 10.0 mi WNW 15.0 mph 24.2 mph N/A   Scattered Clouds
2:35 PM 5.0 °F -13.6 °F -7.6 °F 56% 30.25 in 10.0 mi WNW 16.1 mph 19.6 mph N/A   Scattered Clouds
2:55 PM 5.0 °F -13.6 °F -7.6 °F 56% 30.25 in 10.0 mi WNW 16.1 mph 20.7 mph N/A   Scattered Clouds
3:15 PM 5.0 °F -14.7 °F -7.6 °F 56% 30.25 in 10.0 mi WNW 18.4 mph 24.2 mph N/A   Clear
3:35 PM 5.0 °F -14.2 °F -7.6 °F 56% 30.26 in 10.0 mi WNW 17.3 mph 24.2 mph N/A   Clear
3:55 PM 5.0 °F -13.6 °F -7.6 °F 56% 30.25 in 10.0 mi WNW 16.1 mph 23.0 mph N/A   Clear
4:15 PM 5.0 °F -12.3 °F -7.6 °F 56% 30.25 in 10.0 mi WNW 13.8 mph - N/A   Clear
4:35 PM 5.0 °F -14.2 °F -7.6 °F 56% 30.25 in 10.0 mi WNW 17.3 mph 21.9 mph N/A   Clear
4:55 PM 5.0 °F -12.3 °F -7.6 °F 56% 30.25 in 10.0 mi WNW 13.8 mph 19.6 mph N/A   Clear
5:15 PM 3.2 °F -14.6 °F -7.6 °F 61% 30.25 in 10.0 mi WNW 13.8 mph 20.7 mph N/A   Clear
5:35 PM 3.2 °F -11.3 °F -7.6 °F 61% 30.25 in 10.0 mi NW 9.2 mph 17.3 mph N/A   Clear
5:55 PM 3.2 °F -13.1 °F -7.6 °F 61% 30.26 in 10.0 mi WNW 11.5 mph - N/A   Clear
6:15 PM 3.2 °F -13.1 °F -7.6 °F 61% 30.26 in 10.0 mi WNW 11.5 mph - N/A   Clear
6:35 PM 3.2 °F -12.2 °F -7.6 °F 61% 30.26 in 10.0 mi NW 10.4 mph - N/A   Clear
6:55 PM 1.4 °F -14.5 °F -7.6 °F 66% 30.26 in 10.0 mi WNW 10.4 mph - N/A   Clear
7:15 PM 1.4 °F -13.5 °F -7.6 °F 66% 30.27 in 10.0 mi WNW 9.2 mph - N/A   Clear
7:35 PM 1.4 °F -12.5 °F -7.6 °F 66% 30.27 in 10.0 mi NW 8.1 mph - N/A   Clear
7:55 PM 1.4 °F -11.3 °F -7.6 °F 66% 30.27 in 10.0 mi NW 6.9 mph - N/A   Clear
8:15 PM -0.4 °F -13.4 °F -7.6 °F 72% 30.27 in 10.0 mi NW 6.9 mph - N/A   Clear
8:35 PM -0.4 °F -12.0 °F -7.6 °F 72% 30.27 in 10.0 mi NW 5.8 mph - N/A   Clear
8:55 PM -0.4 °F -10.4 °F -9.4 °F 66% 30.27 in 10.0 mi NW 4.6 mph - N/A   Clear
9:15 PM -0.4 °F -13.4 °F -9.4 °F 66% 30.28 in 10.0 mi NW 6.9 mph - N/A   Clear
9:35 PM -0.4 °F -10.4 °F -9.4 °F 66% 30.28 in 10.0 mi WNW 4.6 mph - N/A   Clear
9:55 PM -2.2 °F -12.5 °F -9.4 °F 71% 30.28 in 10.0 mi West 4.6 mph - N/A   Clear
10:35 PM -2.2 °F -14.2 °F -9.4 °F 71% 30.29 in 10.0 mi WNW 5.8 mph - N/A   Clear
10:55 PM -4.0 °F -16.3 °F -9.4 °F 78% 30.29 in 10.0 mi West 5.8 mph - N/A   Clear
11:15 PM -2.2 °F - -9.4 °F 71% 30.29 in 10.0 mi Calm Calm - N/A   Clear
11:35 PM -4.0 °F -14.6 °F -9.4 °F 78% 30.29 in 10.0 mi WSW 4.6 mph - N/A   Clear
11:55 PM -4.0 °F -12.4 °F -9.4 °F 78% 30.28 in 10.0 mi WSW 3.5 mph - N/A   Clear